Terminal Aerodrome Forecast
Issued by NWS Corpus Christi, TX

Home | Current Version | Previous Version | Text Only | Print | Product List | Glossary On
Versions: 1 2 3 4 5 6 7 8 9 10 11 12 13 14 15 16 17 18 19 20 21 22
000
FTUS44 KCRP 142300
TAFCRP
TAF
KCRP 142330Z 1500/1524 05011KT P6SM SCT020 BKN200
     FM150500 04005KT P6SM BKN012 OVC030
      TEMPO 1510/1514 6SM BR
     FM151400 03006KT P6SM VCSH OVC025
     FM151800 07010KT P6SM VCSH OVC040=

USA.gov is the U.S. government's official web portal to all federal, state and local government web resources and services.